createdAt,value
2018-05-06T00:00:42.364Z,11.39
2018-05-06T00:03:10.727Z,11.29
2018-05-06T00:05:39.018Z,11.18
2018-05-06T00:08:08.006Z,11.10
2018-05-06T00:10:36.377Z,11.08
2018-05-06T00:13:04.759Z,11.19
2018-05-06T00:15:33.093Z,11.08
2018-05-06T00:18:03.036Z,10.98
2018-05-06T00:20:32.164Z,11.01
2018-05-06T00:23:01.232Z,10.93
2018-05-06T00:25:29.574Z,10.88
2018-05-06T00:27:57.864Z,11.06
2018-05-06T00:30:30.885Z,10.87
2018-05-06T00:32:59.232Z,10.83
2018-05-06T00:35:28.286Z,10.86
2018-05-06T00:37:56.614Z,10.82
2018-05-06T00:40:25.269Z,10.90
2018-05-06T00:42:53.575Z,10.74
2018-05-06T00:45:22.684Z,10.67
2018-05-06T00:47:51.007Z,10.72
2018-05-06T00:50:19.320Z,10.83
2018-05-06T00:52:48.380Z,10.80
2018-05-06T00:55:16.700Z,10.73
2018-05-06T00:57:45.014Z,10.68
2018-05-06T01:00:13.368Z,10.54
2018-05-06T01:02:41.746Z,10.50
2018-05-06T01:05:10.002Z,10.42
2018-05-06T01:07:38.313Z,10.38
2018-05-06T01:10:06.619Z,10.35
2018-05-06T01:12:34.957Z,10.30
2018-05-06T01:15:03.250Z,10.25
2018-05-06T01:17:31.574Z,10.24
2018-05-06T01:19:59.882Z,10.34
2018-05-06T01:22:28.349Z,10.24
2018-05-06T01:24:56.667Z,10.22
2018-05-06T01:27:24.975Z,10.39
2018-05-06T01:29:53.292Z,10.77
2018-05-06T01:32:21.681Z,10.59
2018-05-06T01:34:49.965Z,10.61
2018-05-06T01:37:18.258Z,10.40
2018-05-06T01:39:46.614Z,10.67
2018-05-06T01:42:14.912Z,10.34
2018-05-06T01:44:43.246Z,10.32
2018-05-06T01:47:12.281Z,10.35
2018-05-06T01:49:40.669Z,10.33
2018-05-06T01:52:08.948Z,10.14
2018-05-06T01:54:38.030Z,10.04
2018-05-06T01:57:06.339Z,9.95
2018-05-06T01:59:35.480Z,9.88
2018-05-06T02:02:03.789Z,9.88
2018-05-06T02:04:32.674Z,9.85
2018-05-06T02:07:00.982Z,9.87
2018-05-06T02:09:29.297Z,9.80
2018-05-06T02:11:58.365Z,9.78
2018-05-06T02:14:26.616Z,9.73
2018-05-06T02:16:54.961Z,9.71
2018-05-06T02:19:24.070Z,9.65
2018-05-06T02:21:52.332Z,9.62
2018-05-06T02:24:20.608Z,9.54
2018-05-06T02:26:48.924Z,9.50
2018-05-06T02:29:17.199Z,9.47
2018-05-06T02:31:45.495Z,9.48
2018-05-06T02:34:13.805Z,9.44
2018-05-06T02:36:46.909Z,9.40
2018-05-06T02:39:15.214Z,9.36
2018-05-06T02:41:43.535Z,9.36
2018-05-06T02:44:11.845Z,9.53
2018-05-06T02:46:40.284Z,9.49
2018-05-06T02:49:08.593Z,9.41
2018-05-06T02:51:37.648Z,9.40
2018-05-06T02:54:06.703Z,9.36
2018-05-06T02:56:35.145Z,9.30
2018-05-06T02:59:04.418Z,9.25
2018-05-06T03:01:32.746Z,9.22
2018-05-06T03:04:01.801Z,9.22
2018-05-06T03:06:30.359Z,9.17
2018-05-06T03:08:58.648Z,9.16
2018-05-06T03:11:26.980Z,9.12
2018-05-06T03:13:55.353Z,9.04
2018-05-06T03:16:24.399Z,9.08
2018-05-06T03:18:52.709Z,9.02
2018-05-06T03:21:21.027Z,8.97
2018-05-06T03:23:49.348Z,8.95
2018-05-06T03:26:17.659Z,8.93
2018-05-06T03:28:45.970Z,8.93
2018-05-06T03:31:14.239Z,9.01
2018-05-06T03:33:42.544Z,9.16
2018-05-06T03:36:10.824Z,9.22
2018-05-06T03:38:39.604Z,9.12
2018-05-06T03:41:07.929Z,9.06
2018-05-06T03:43:37.012Z,9.25
2018-05-06T03:46:05.357Z,9.20
2018-05-06T03:48:33.649Z,9.11
2018-05-06T03:51:01.994Z,9.07
2018-05-06T03:53:30.325Z,9.09
2018-05-06T03:59:47.241Z,9.04
2018-05-06T04:05:12.122Z,9.09
2018-05-06T04:07:44.383Z,9.11
2018-05-06T04:10:16.575Z,9.15
2018-05-06T04:12:44.885Z,9.21
2018-05-06T04:15:13.323Z,9.28
2018-05-06T04:17:41.882Z,9.37
2018-05-06T04:20:10.968Z,9.44
2018-05-06T04:22:40.119Z,9.41
2018-05-06T04:25:13.267Z,9.57
2018-05-06T04:27:45.682Z,9.89
2018-05-06T04:30:14.850Z,9.93
2018-05-06T04:32:47.035Z,11.16
2018-05-06T04:35:15.617Z,15.78
2018-05-06T04:37:44.372Z,18.23
2018-05-06T04:40:12.822Z,17.55
2018-05-06T04:42:42.213Z,19.23
2018-05-06T04:45:10.534Z,21.34
2018-05-06T04:47:39.660Z,21.99
2018-05-06T04:50:08.844Z,22.00
2018-05-06T04:52:41.376Z,22.74
2018-05-06T04:55:09.725Z,22.88
2018-05-06T04:57:42.271Z,23.76
2018-05-06T05:00:11.383Z,22.56
2018-05-06T05:02:39.761Z,21.48
2018-05-06T05:05:10.727Z,22.27
2018-05-06T05:07:39.140Z,21.60
2018-05-06T05:10:09.727Z,21.95
2018-05-06T05:12:38.055Z,24.07
2018-05-06T05:15:07.159Z,23.76
2018-05-06T05:17:42.310Z,25.31
2018-05-06T05:20:10.611Z,24.80
2018-05-06T05:22:40.710Z,23.77
2018-05-06T05:25:12.995Z,23.20
2018-05-06T05:27:42.085Z,23.28
2018-05-06T05:30:10.395Z,26.00
2018-05-06T05:32:38.760Z,25.06
2018-05-06T05:35:07.050Z,24.01
2018-05-06T05:37:35.400Z,23.88
2018-05-06T05:40:03.784Z,23.57
2018-05-06T05:42:32.162Z,23.34
2018-05-06T05:45:00.530Z,26.36
2018-05-06T05:47:29.663Z,24.82
2018-05-06T05:50:04.227Z,26.47
2018-05-06T05:52:33.326Z,27.19
2018-05-06T05:55:02.403Z,26.61
2018-05-06T05:57:30.707Z,25.98
2018-05-06T05:59:59.006Z,26.56
2018-05-06T06:02:28.080Z,27.51
2018-05-06T06:04:58.380Z,27.45
2018-05-06T06:07:26.705Z,27.82
2018-05-06T06:09:55.048Z,27.53
2018-05-06T06:12:24.148Z,25.79
2018-05-06T06:14:53.781Z,25.88
2018-05-06T06:17:22.096Z,28.92
2018-05-06T06:19:50.438Z,26.41
2018-05-06T06:22:18.770Z,26.53
2018-05-06T06:24:50.948Z,26.25
2018-05-06T06:27:19.279Z,26.26
2018-05-06T06:29:47.617Z,26.50
2018-05-06T06:32:16.015Z,27.18
2018-05-06T06:34:48.477Z,26.67
2018-05-06T06:37:17.524Z,27.51
2018-05-06T06:39:45.896Z,27.04
2018-05-06T06:42:14.209Z,26.29
2018-05-06T06:44:42.517Z,26.76
2018-05-06T06:47:14.509Z,27.46
2018-05-06T06:52:17.367Z,26.39
2018-05-06T06:54:46.452Z,26.27
2018-05-06T06:57:15.564Z,26.07
2018-05-06T06:59:43.886Z,24.39
2018-05-06T07:02:12.329Z,25.96
2018-05-06T07:04:45.250Z,25.57
2018-05-06T07:07:13.737Z,25.87
2018-05-06T07:09:42.135Z,25.97
2018-05-06T07:12:10.465Z,25.69
2018-05-06T07:14:38.797Z,25.49
2018-05-06T07:17:07.317Z,26.04
2018-05-06T07:19:35.681Z,26.52
2018-05-06T07:22:04.839Z,26.97
2018-05-06T07:24:37.304Z,27.02
2018-05-06T07:27:09.868Z,24.63
2018-05-06T07:29:39.232Z,25.53
2018-05-06T07:32:08.386Z,24.80
2018-05-06T07:34:37.500Z,24.05
2018-05-06T07:37:05.814Z,25.77
2018-05-06T07:39:34.941Z,24.56
2018-05-06T07:42:03.628Z,25.28
2018-05-06T07:44:31.965Z,25.65
2018-05-06T07:47:01.513Z,23.19
2018-05-06T07:49:30.470Z,24.39
2018-05-06T07:52:03.874Z,22.39
2018-05-06T07:54:32.295Z,22.66
2018-05-06T07:57:00.920Z,23.25
2018-05-06T07:59:35.061Z,20.86
2018-05-06T08:02:03.547Z,19.73
2018-05-06T08:04:31.932Z,19.39
2018-05-06T08:07:04.479Z,19.50
2018-05-06T08:09:37.579Z,18.97
2018-05-06T08:12:07.534Z,18.92
2018-05-06T08:14:36.894Z,18.93
2018-05-06T08:17:11.518Z,18.68
2018-05-06T08:19:45.950Z,18.65
2018-05-06T08:22:14.425Z,18.38
2018-05-06T08:24:44.651Z,18.64
2018-05-06T08:27:12.972Z,18.81
2018-05-06T08:29:41.857Z,18.64
2018-05-06T08:32:12.515Z,18.54
2018-05-06T08:37:18.759Z,18.94
2018-05-06T08:39:48.097Z,19.46
2018-05-06T08:42:16.584Z,19.43
2018-05-06T08:44:48.955Z,19.56
2018-05-06T08:47:17.316Z,19.38
2018-05-06T08:49:46.400Z,19.52
2018-05-06T08:52:14.788Z,19.78
2018-05-06T08:54:43.955Z,19.55
2018-05-06T08:57:12.250Z,19.80
2018-05-06T08:59:40.667Z,19.54
2018-05-06T09:02:08.971Z,19.92
2018-05-06T09:04:37.346Z,20.01
2018-05-06T09:07:06.068Z,19.89
2018-05-06T09:09:34.845Z,20.53
2018-05-06T09:12:03.697Z,20.83
2018-05-06T09:14:32.109Z,21.94
2018-05-06T09:17:02.638Z,21.93
2018-05-06T09:19:31.065Z,22.38
2018-05-06T09:22:01.888Z,21.97
2018-05-06T09:24:31.186Z,22.31
2018-05-06T09:27:00.512Z,22.18
2018-05-06T09:29:30.255Z,21.96
2018-05-06T09:32:00.608Z,21.52
2018-05-06T09:34:38.784Z,21.09
2018-05-06T09:37:16.752Z,20.77
2018-05-06T09:39:45.225Z,20.56
2018-05-06T09:42:18.278Z,20.75
2018-05-06T09:44:47.605Z,20.43
2018-05-06T09:47:20.240Z,20.78
2018-05-06T09:49:53.614Z,21.20
2018-05-06T09:52:25.970Z,21.48
2018-05-06T09:54:54.886Z,20.81
2018-05-06T09:57:27.037Z,20.85
2018-05-06T09:59:57.328Z,21.07
2018-05-06T10:02:25.859Z,21.35
2018-05-06T10:04:54.296Z,22.55
2018-05-06T10:07:25.751Z,23.12
2018-05-06T10:09:54.721Z,23.53
2018-05-06T10:12:23.113Z,23.87
2018-05-06T10:14:55.508Z,23.44
2018-05-06T10:17:30.467Z,23.39
2018-05-06T10:20:07.019Z,24.59
2018-05-06T10:22:38.901Z,23.63
2018-05-06T10:25:08.159Z,23.70
2018-05-06T10:27:36.461Z,23.99
2018-05-06T10:30:05.499Z,24.49
2018-05-06T10:32:33.997Z,24.13
2018-05-06T10:35:02.313Z,24.06
2018-05-06T10:37:31.379Z,24.25
2018-05-06T10:40:00.650Z,24.16
2018-05-06T10:42:29.749Z,24.09
2018-05-06T10:45:01.922Z,23.65
2018-05-06T10:47:35.154Z,24.56
2018-05-06T10:50:03.476Z,24.26
2018-05-06T10:52:32.617Z,24.53
2018-05-06T10:55:01.000Z,23.94
2018-05-06T10:57:29.357Z,23.87
2018-05-06T10:59:57.736Z,24.44
2018-05-06T11:02:26.034Z,24.48
2018-05-06T11:05:00.139Z,23.45
2018-05-06T11:07:28.497Z,23.32
2018-05-06T11:09:57.649Z,23.05
2018-05-06T11:12:25.963Z,22.63
2018-05-06T11:14:55.839Z,22.27
2018-05-06T11:17:24.947Z,22.24
2018-05-06T11:19:53.998Z,22.00
2018-05-06T11:22:22.380Z,22.19
2018-05-06T11:24:50.732Z,22.35
2018-05-06T11:27:19.997Z,22.45
2018-05-06T11:29:48.410Z,22.22
2018-05-06T11:35:04.289Z,22.38
2018-05-06T11:53:49.264Z,22.66
2018-05-06T11:56:18.394Z,22.59
2018-05-06T11:58:51.372Z,22.75
2018-05-06T12:01:20.673Z,22.36
2018-05-06T12:03:49.800Z,22.79
2018-05-06T12:06:18.204Z,23.05
2018-05-06T12:08:46.630Z,22.74
2018-05-06T12:11:15.681Z,22.40
2018-05-06T12:13:44.069Z,22.63
2018-05-06T12:16:13.630Z,22.68
2018-05-06T12:18:42.636Z,23.39
2018-05-06T12:21:10.951Z,23.14
2018-05-06T12:23:43.627Z,23.49
2018-05-06T12:26:11.898Z,23.47
2018-05-06T12:28:40.193Z,23.26
2018-05-06T12:31:08.538Z,23.13
2018-05-06T12:33:36.952Z,23.06
2018-05-06T12:36:06.025Z,23.14
2018-05-06T12:38:40.297Z,23.06
2018-05-06T12:41:08.618Z,23.31
2018-05-06T12:43:41.771Z,23.10
2018-05-06T12:46:10.868Z,23.09
2018-05-06T12:48:40.801Z,23.31
2018-05-06T12:51:13.208Z,23.28
2018-05-06T12:53:45.544Z,23.45
2018-05-06T12:56:13.918Z,23.19
2018-05-06T12:58:42.292Z,23.65
2018-05-06T13:01:10.637Z,23.64
2018-05-06T13:03:39.883Z,23.61
2018-05-06T13:06:11.765Z,23.82
2018-05-06T13:08:41.011Z,23.79
2018-05-06T13:11:10.173Z,23.58
2018-05-06T13:13:41.305Z,23.41
2018-05-06T13:16:14.081Z,23.50
2018-05-06T13:18:43.394Z,23.93
2018-05-06T13:21:11.852Z,23.55
2018-05-06T13:23:40.234Z,23.55
2018-05-06T13:26:08.692Z,23.62
2018-05-06T13:28:37.120Z,23.73
2018-05-06T13:31:09.853Z,23.64
2018-05-06T13:33:39.093Z,23.60
2018-05-06T13:36:08.355Z,23.58
2018-05-06T13:38:37.460Z,24.03
2018-05-06T13:41:06.662Z,23.89
2018-05-06T13:43:35.934Z,23.85
2018-05-06T13:46:05.168Z,23.84
2018-05-06T13:48:33.609Z,23.90
2018-05-06T13:51:02.931Z,23.76
2018-05-06T13:53:32.354Z,23.89
2018-05-06T13:56:05.145Z,23.86
2018-05-06T13:58:40.239Z,23.92
2018-05-06T14:01:14.247Z,23.85
2018-05-06T14:03:44.284Z,23.74
2018-05-06T14:06:12.726Z,23.85
2018-05-06T14:08:45.768Z,23.93
2018-05-06T14:11:18.383Z,24.19
2018-05-06T14:13:46.881Z,24.09
2018-05-06T14:16:16.103Z,24.17
2018-05-06T14:18:45.246Z,24.14
2018-05-06T14:21:13.721Z,24.23
2018-05-06T14:23:43.652Z,24.22
2018-05-06T14:26:15.914Z,24.30
2018-05-06T14:28:45.117Z,24.00
2018-05-06T14:31:14.450Z,24.02
2018-05-06T14:33:44.535Z,24.08
2018-05-06T14:36:21.268Z,23.99
2018-05-06T14:38:49.613Z,23.79
2018-05-06T14:41:18.879Z,23.90
2018-05-06T14:43:48.169Z,23.81
2018-05-06T14:49:42.204Z,23.91
2018-05-06T14:52:12.460Z,24.24
2018-05-06T14:54:41.762Z,24.33
2018-05-06T14:57:10.935Z,24.17
2018-05-06T14:59:43.703Z,24.27
2018-05-06T15:02:16.126Z,24.09
2018-05-06T15:04:44.470Z,23.94
2018-05-06T15:07:12.970Z,23.98
2018-05-06T15:09:41.269Z,24.07
2018-05-06T15:12:30.713Z,23.71
2018-05-06T15:14:59.026Z,23.74
2018-05-06T15:17:31.460Z,23.85
2018-05-06T15:20:03.934Z,23.79
2018-05-06T15:22:33.346Z,23.62
2018-05-06T15:25:06.975Z,23.85
2018-05-06T15:27:35.814Z,24.03
2018-05-06T15:30:05.505Z,23.92
2018-05-06T15:32:38.274Z,23.84
2018-05-06T15:35:06.716Z,23.78
2018-05-06T15:37:35.952Z,23.66
2018-05-06T15:40:08.316Z,23.68
2018-05-06T15:42:36.728Z,23.70
2018-05-06T15:45:09.694Z,23.68
2018-05-06T15:47:47.317Z,23.78
2018-05-06T15:50:15.780Z,23.79
2018-05-06T15:52:44.158Z,23.80
2018-05-06T15:55:13.153Z,23.70
2018-05-06T15:57:42.043Z,23.69
2018-05-06T16:00:11.405Z,23.61
2018-05-06T16:03:12.282Z,23.58
2018-05-06T16:05:42.001Z,23.60
2018-05-06T16:08:11.390Z,23.62
2018-05-06T16:10:41.503Z,23.45
2018-05-06T16:13:09.969Z,23.58
2018-05-06T16:15:40.011Z,23.68
2018-05-06T16:18:15.564Z,23.55
2018-05-06T16:20:44.216Z,23.62
2018-05-06T16:23:12.898Z,23.49
2018-05-06T16:25:42.639Z,23.36
2018-05-06T16:28:11.158Z,23.46
2018-05-06T16:30:39.784Z,23.45
2018-05-06T16:33:08.358Z,23.27
2018-05-06T16:35:41.116Z,23.30
2018-05-06T16:38:16.001Z,23.41
2018-05-06T16:40:48.263Z,23.35
2018-05-06T16:43:17.268Z,23.41
2018-05-06T16:45:51.376Z,23.53
2018-05-06T16:48:20.350Z,23.47
2018-05-06T16:50:49.903Z,23.45
2018-05-06T16:53:19.818Z,23.28
2018-05-06T16:55:48.472Z,23.23
2018-05-06T16:58:18.214Z,23.11
2018-05-06T17:00:47.028Z,23.07
2018-05-06T17:03:15.823Z,23.12
2018-05-06T17:05:45.299Z,23.07
2018-05-06T17:08:14.156Z,23.04
2018-05-06T17:10:42.829Z,22.98
2018-05-06T17:13:15.688Z,22.85
2018-05-06T17:15:45.318Z,22.97
2018-05-06T17:18:14.108Z,22.75
2018-05-06T17:20:43.453Z,22.74
2018-05-06T17:23:12.984Z,22.69
2018-05-06T17:25:41.418Z,22.71
2018-05-06T17:28:09.789Z,22.60
2018-05-06T17:30:42.249Z,22.70
2018-05-06T17:33:10.692Z,22.69
2018-05-06T17:35:39.265Z,22.56
2018-05-06T17:38:07.661Z,22.45
2018-05-06T17:40:36.755Z,22.41
2018-05-06T17:43:06.205Z,22.25
2018-05-06T17:45:34.785Z,22.33
2018-05-06T17:48:03.395Z,22.20
2018-05-06T17:50:31.849Z,22.12
2018-05-06T17:53:01.342Z,22.12
2018-05-06T17:55:30.547Z,22.01
2018-05-06T17:57:59.709Z,21.91
2018-05-06T18:00:28.119Z,21.87
2018-05-06T18:02:56.755Z,21.78
2018-05-06T18:05:25.195Z,21.72
2018-05-06T18:07:53.781Z,21.65
2018-05-06T18:10:22.233Z,21.57
2018-05-06T18:12:50.683Z,21.54
2018-05-06T18:15:19.197Z,21.48
2018-05-06T18:17:47.848Z,21.41
2018-05-06T18:20:16.344Z,21.34
2018-05-06T18:22:44.753Z,21.24
2018-05-06T18:25:13.277Z,21.19
2018-05-06T18:27:41.824Z,21.12
2018-05-06T18:30:15.294Z,21.01
2018-05-06T18:32:43.769Z,20.94
2018-05-06T18:35:12.182Z,20.92
2018-05-06T18:37:41.389Z,20.82
2018-05-06T18:40:10.532Z,20.73
2018-05-06T18:42:38.934Z,20.66
2018-05-06T18:45:11.426Z,20.59
2018-05-06T18:47:40.096Z,20.48
2018-05-06T18:50:08.695Z,20.44
2018-05-06T18:52:37.008Z,20.36
2018-05-06T18:55:09.590Z,20.32
2018-05-06T18:57:37.932Z,20.21
2018-05-06T19:00:06.240Z,20.10
2018-05-06T19:02:34.692Z,20.15
2018-05-06T19:05:03.634Z,20.07
2018-05-06T19:07:32.103Z,19.92
2018-05-06T19:10:00.480Z,19.86
2018-05-06T19:12:28.844Z,19.75
2018-05-06T19:14:58.292Z,19.68
2018-05-06T19:17:26.988Z,19.59
2018-05-06T19:19:55.649Z,19.62
2018-05-06T19:22:24.090Z,19.52
2018-05-06T19:24:53.370Z,19.48
2018-05-06T19:27:21.744Z,19.43
2018-05-06T19:29:54.541Z,19.41
2018-05-06T19:32:22.846Z,19.29
2018-05-06T19:34:51.182Z,19.30
2018-05-06T19:37:19.568Z,19.23
2018-05-06T19:39:47.999Z,19.14
2018-05-06T19:42:16.296Z,19.08
2018-05-06T19:44:44.670Z,19.05
2018-05-06T19:47:13.072Z,19.04
2018-05-06T19:49:41.634Z,19.00
2018-05-06T19:52:09.999Z,18.92
2018-05-06T19:54:38.412Z,18.84
2018-05-06T19:57:06.792Z,18.80
2018-05-06T19:59:35.284Z,18.82
2018-05-06T20:02:04.173Z,18.76
2018-05-06T20:04:32.581Z,18.77
2018-05-06T20:07:01.835Z,18.67
2018-05-06T20:09:30.323Z,18.47
2018-05-06T20:11:58.717Z,18.28
2018-05-06T20:14:27.136Z,18.38
2018-05-06T20:16:55.975Z,18.26
2018-05-06T20:19:24.305Z,18.12
2018-05-06T20:21:52.664Z,18.04
2018-05-06T20:24:20.951Z,17.91
2018-05-06T20:26:49.280Z,17.87
2018-05-06T20:29:17.670Z,17.97
2018-05-06T20:31:46.016Z,17.88
2018-05-06T20:34:14.358Z,17.88
2018-05-06T20:36:43.494Z,18.01
2018-05-06T20:39:11.931Z,18.03
2018-05-06T20:41:41.070Z,17.96
2018-05-06T20:44:09.515Z,17.88
2018-05-06T20:46:38.622Z,17.80
2018-05-06T20:49:07.016Z,17.75
2018-05-06T20:51:35.337Z,17.66
2018-05-06T20:54:03.719Z,17.68
2018-05-06T20:56:32.044Z,17.75
2018-05-06T20:59:00.383Z,17.63
2018-05-06T21:01:28.791Z,17.61
2018-05-06T21:03:57.241Z,17.56
2018-05-06T21:06:32.934Z,17.46
2018-05-06T21:09:11.192Z,17.44
2018-05-06T21:11:48.358Z,17.43
2018-05-06T21:14:26.677Z,17.34
2018-05-06T21:16:56.678Z,17.22
2018-05-06T21:19:35.740Z,17.21
2018-05-06T21:22:11.680Z,17.06
2018-05-06T21:25:04.027Z,16.92
2018-05-06T21:27:32.486Z,16.83
2018-05-06T21:30:01.647Z,16.69
2018-05-06T21:32:33.981Z,16.62
2018-05-06T21:35:03.097Z,16.49
2018-05-06T21:37:31.500Z,16.37
2018-05-06T21:40:00.618Z,16.37
2018-05-06T21:42:29.001Z,16.36
2018-05-06T21:44:57.452Z,16.27
2018-05-06T21:47:25.819Z,16.17
2018-05-06T21:49:54.170Z,16.12
2018-05-06T21:52:22.540Z,16.09
2018-05-06T21:54:50.876Z,15.96
2018-05-06T21:57:19.271Z,15.92
2018-05-06T21:59:47.983Z,15.89
2018-05-06T22:02:16.330Z,15.99
2018-05-06T22:04:45.666Z,16.01
2018-05-06T22:07:14.177Z,15.88
2018-05-06T22:09:42.585Z,15.80
2018-05-06T22:12:11.073Z,15.69
2018-05-06T22:14:39.458Z,15.60
2018-05-06T22:17:07.788Z,15.51
2018-05-06T22:19:36.202Z,15.42
2018-05-06T22:22:05.636Z,15.44
2018-05-06T22:24:33.980Z,15.44
2018-05-06T22:27:03.093Z,15.35
2018-05-06T22:29:31.442Z,15.34
2018-05-06T22:31:59.845Z,15.26
2018-05-06T22:34:28.137Z,15.24
2018-05-06T22:36:56.476Z,15.17
2018-05-06T22:39:25.619Z,15.09
2018-05-06T22:41:54.034Z,15.10
2018-05-06T22:44:22.338Z,15.10
2018-05-06T22:46:52.304Z,15.04
2018-05-06T22:49:20.609Z,15.26
2018-05-06T22:51:49.976Z,15.18
2018-05-06T22:54:18.356Z,15.35
2018-05-06T22:56:46.691Z,15.30
2018-05-06T22:59:15.830Z,15.12
2018-05-06T23:01:44.174Z,15.00
2018-05-06T23:04:13.277Z,15.02
2018-05-06T23:06:42.342Z,14.94
2018-05-06T23:09:10.653Z,14.83
2018-05-06T23:11:39.070Z,14.76
2018-05-06T23:14:07.514Z,14.70
2018-05-06T23:16:35.868Z,14.68
2018-05-06T23:19:04.218Z,14.60
2018-05-06T23:21:32.582Z,14.90
2018-05-06T23:24:00.882Z,14.84
2018-05-06T23:26:29.214Z,14.59
2018-05-06T23:28:57.515Z,14.53
2018-05-06T23:31:25.857Z,14.44
2018-05-06T23:33:54.161Z,14.46
2018-05-06T23:36:22.536Z,14.33
2018-05-06T23:38:50.870Z,14.60
2018-05-06T23:41:19.228Z,14.66
2018-05-06T23:43:47.583Z,14.57
2018-05-06T23:46:15.917Z,14.37
2018-05-06T23:48:45.152Z,14.39
2018-05-06T23:51:13.957Z,14.47
2018-05-06T23:53:42.377Z,14.51
2018-05-06T23:56:11.615Z,14.35
2018-05-06T23:58:40.032Z,14.25
